createdAt,value
2022-12-31T00:01:13.033Z,100154.44
2022-12-31T00:03:40.084Z,100175.50
2022-12-31T00:06:32.788Z,100180.75
2022-12-31T00:09:00.374Z,100212.38
2022-12-31T00:11:27.777Z,100207.09
2022-12-31T00:13:54.229Z,100215.00
2022-12-31T00:16:28.366Z,100223.78
2022-12-31T00:18:55.981Z,100229.94
2022-12-31T00:21:22.574Z,100229.03
2022-12-31T00:23:48.849Z,100243.09
2022-12-31T00:26:16.897Z,100254.50
2022-12-31T00:28:43.972Z,100256.28
2022-12-31T00:31:12.053Z,100266.81
2022-12-31T00:33:38.812Z,100268.59
2022-12-31T00:36:25.413Z,100274.75
2022-12-31T00:38:52.852Z,100270.34
2022-12-31T00:41:19.851Z,100268.59
2022-12-31T00:43:46.170Z,100294.06
2022-12-31T00:46:12.907Z,100298.44
2022-12-31T00:48:39.357Z,100303.72
2022-12-31T00:51:06.851Z,100316.91
2022-12-31T00:53:33.570Z,100323.06
2022-12-31T00:56:04.303Z,100323.06
2022-12-31T00:58:30.634Z,100331.88
2022-12-31T01:00:57.350Z,100331.88
2022-12-31T01:03:23.991Z,100321.31
2022-12-31T01:05:50.432Z,100336.25
2022-12-31T01:08:17.119Z,100336.25
2022-12-31T01:11:06.610Z,100338.03
2022-12-31T01:13:32.949Z,100334.53
2022-12-31T01:16:06.251Z,100332.78
2022-12-31T01:18:32.545Z,100338.06
2022-12-31T01:21:00.971Z,100342.44
2022-12-31T01:23:27.257Z,100344.22
2022-12-31T01:25:53.527Z,100346.88
2022-12-31T01:28:19.781Z,100339.84
2022-12-31T01:30:46.726Z,100321.44
2022-12-31T01:33:13.011Z,100317.03
2022-12-31T01:35:39.277Z,100310.00
2022-12-31T01:38:05.522Z,100311.78
2022-12-31T01:40:35.991Z,100326.69
2022-12-31T01:43:02.287Z,100358.34
2022-12-31T01:45:29.165Z,100362.72
2022-12-31T01:47:58.703Z,100369.75
2022-12-31T01:50:27.498Z,100368.00
2022-12-31T01:52:55.882Z,100378.53
2022-12-31T01:55:37.302Z,100379.41
2022-12-31T01:58:10.359Z,100382.03
2022-12-31T02:00:36.866Z,100403.13
2022-12-31T02:03:05.362Z,100414.53
2022-12-31T02:05:35.067Z,100425.97
2022-12-31T02:08:02.414Z,100436.53
2022-12-31T02:10:28.706Z,100433.88
2022-12-31T02:12:55.019Z,100432.13
2022-12-31T02:15:24.689Z,100440.03
2022-12-31T02:18:03.389Z,100442.69
2022-12-31T02:20:44.917Z,100440.91
2022-12-31T02:23:29.672Z,100447.06
2022-12-31T02:26:06.009Z,100447.97
2022-12-31T02:28:59.228Z,100459.38
2022-12-31T02:31:33.236Z,100467.28
2022-12-31T02:34:12.246Z,100463.78
2022-12-31T02:36:42.233Z,100465.53
2022-12-31T02:39:10.015Z,100479.59
2022-12-31T02:41:51.818Z,100479.59
2022-12-31T02:44:38.389Z,100482.22
2022-12-31T02:47:07.801Z,100491.00
2022-12-31T02:49:52.979Z,100447.06
2022-12-31T02:52:19.229Z,100389.91
2022-12-31T02:54:55.996Z,100338.94
2022-12-31T02:57:28.098Z,100299.38
2022-12-31T03:00:24.422Z,100277.41
2022-12-31T03:02:51.567Z,100276.50
2022-12-31T03:05:19.489Z,100273.88
2022-12-31T03:07:46.105Z,100267.75
2022-12-31T03:10:12.824Z,100278.25
2022-12-31T03:12:46.597Z,100283.53
2022-12-31T03:15:20.649Z,100288.78
2022-12-31T03:17:49.774Z,99949.44
2022-12-31T03:20:34.784Z,99952.91
2022-12-31T03:23:01.566Z,99959.91
2022-12-31T03:25:34.582Z,99951.97
2022-12-31T03:28:05.969Z,99953.75
2022-12-31T03:30:32.498Z,99955.53
2022-12-31T03:32:59.182Z,99958.16
2022-12-31T03:35:26.762Z,99958.16
2022-12-31T03:37:53.532Z,99952.00
2022-12-31T03:40:23.442Z,99943.25
2022-12-31T03:42:49.768Z,99941.47
2022-12-31T03:45:16.288Z,99944.09
2022-12-31T03:47:42.644Z,99946.72
2022-12-31T03:50:10.380Z,99946.72
2022-12-31T03:52:36.709Z,99943.19
2022-12-31T03:55:03.131Z,99951.91
2022-12-31T03:57:29.770Z,99946.63
2022-12-31T03:59:56.082Z,99931.69
2022-12-31T04:02:28.248Z,99935.22
2022-12-31T04:04:55.413Z,99936.94
2022-12-31T04:07:21.719Z,99936.03
2022-12-31T04:09:48.007Z,99932.50
2022-12-31T04:12:14.354Z,99937.84
2022-12-31T04:14:40.783Z,99941.31
2022-12-31T04:17:07.070Z,99944.88
2022-12-31T04:19:33.383Z,99933.44
2022-12-31T04:21:59.696Z,99946.59
2022-12-31T04:24:26.021Z,99958.06
2022-12-31T04:26:52.348Z,99955.44
2022-12-31T04:29:18.791Z,99954.53
2022-12-31T04:31:45.175Z,99944.88
2022-12-31T04:34:11.497Z,99950.19
2022-12-31T04:36:37.758Z,99956.38
2022-12-31T04:39:04.098Z,99959.91
2022-12-31T04:41:30.412Z,99953.81
2022-12-31T04:43:58.163Z,99955.59
2022-12-31T04:46:29.261Z,99957.38
2022-12-31T04:48:55.856Z,99956.50
2022-12-31T04:51:22.525Z,99960.94
2022-12-31T04:53:49.060Z,99969.75
2022-12-31T04:56:16.158Z,99975.03
2022-12-31T04:58:42.456Z,99982.03
2022-12-31T05:01:08.898Z,99984.66
2022-12-31T05:03:35.566Z,99984.66
2022-12-31T05:06:10.747Z,99988.13
2022-12-31T05:08:37.035Z,99985.41
2022-12-31T05:11:03.340Z,99980.09
2022-12-31T05:13:33.366Z,99993.25
2022-12-31T05:16:00.295Z,99985.25
2022-12-31T05:18:26.664Z,99987.88
2022-12-31T05:20:52.955Z,99973.75
2022-12-31T05:23:19.399Z,99966.66
2022-12-31T05:25:46.827Z,99971.88
2022-12-31T05:28:13.481Z,99960.44
2022-12-31T05:30:39.775Z,99971.00
2022-12-31T05:33:06.060Z,99969.22
2022-12-31T05:35:32.422Z,99969.25
2022-12-31T05:37:59.825Z,99978.03
2022-12-31T05:40:26.160Z,99970.06
2022-12-31T05:42:52.421Z,99968.31
2022-12-31T05:45:20.415Z,99963.94
2022-12-31T05:47:49.137Z,99967.44
2022-12-31T05:50:15.714Z,99969.16
2022-12-31T05:52:47.417Z,99970.03
2022-12-31T05:55:14.165Z,99973.50
2022-12-31T05:57:40.440Z,99981.38
2022-12-31T06:00:07.178Z,99980.47
2022-12-31T06:02:33.510Z,99977.81
2022-12-31T06:04:59.842Z,99976.94
2022-12-31T06:07:26.162Z,99984.00
2022-12-31T06:09:52.453Z,99978.66
2022-12-31T06:12:18.754Z,99974.31
2022-12-31T06:14:45.888Z,99990.16
2022-12-31T06:17:12.390Z,99984.06
2022-12-31T06:19:38.643Z,99984.06
2022-12-31T06:22:04.897Z,99982.31
2022-12-31T06:24:31.155Z,99990.25
2022-12-31T06:26:57.440Z,99992.91
2022-12-31T06:29:23.700Z,99997.34
2022-12-31T06:31:50.007Z,100000.81
2022-12-31T06:34:16.372Z,100000.81
2022-12-31T06:36:42.623Z,99999.91
2022-12-31T06:39:08.891Z,99994.59
2022-12-31T06:41:35.217Z,100007.81
2022-12-31T06:44:01.574Z,100012.16
2022-12-31T06:46:27.933Z,100002.50
2022-12-31T06:48:54.245Z,100008.59
2022-12-31T06:51:21.623Z,100012.13
2022-12-31T06:53:48.800Z,100008.59
2022-12-31T06:56:16.490Z,99997.19
2022-12-31T06:58:42.939Z,99994.50
2022-12-31T07:01:30.350Z,99984.00
2022-12-31T07:04:02.668Z,99974.28
2022-12-31T07:06:44.022Z,99979.56
2022-12-31T07:09:22.252Z,99979.56
2022-12-31T07:11:48.478Z,99982.22
2022-12-31T13:15:54.012Z,99933.44
2022-12-31T13:56:25.724Z,99979.25
2022-12-31T13:58:58.155Z,99973.03
2022-12-31T14:01:36.790Z,99972.13
2022-12-31T14:04:12.144Z,99988.88
2022-12-31T14:06:38.417Z,99984.44
2022-12-31T14:09:05.128Z,99987.97
2022-12-31T14:11:41.306Z,100003.81
2022-12-31T14:14:15.822Z,99997.59
2022-12-31T14:17:08.621Z,100009.00
2022-12-31T14:19:44.013Z,100019.56
2022-12-31T14:22:13.427Z,100010.78
2022-12-31T14:24:44.651Z,100004.59
2022-12-31T14:27:19.710Z,100005.53
2022-12-31T14:29:52.217Z,100012.63
2022-12-31T14:32:37.175Z,100018.81
2022-12-31T14:35:15.560Z,100022.34
2022-12-31T14:38:02.144Z,100026.72
2022-12-31T14:40:32.621Z,100010.81
2022-12-31T14:43:10.496Z,100016.03
2022-12-31T14:45:46.783Z,100000.97
2022-12-31T14:48:21.606Z,100016.84
2022-12-31T14:50:48.557Z,100022.09
2022-12-31T14:53:25.913Z,100025.56
2022-12-31T14:55:58.348Z,100029.00
2022-12-31T14:58:38.280Z,100029.00
2022-12-31T15:01:18.762Z,100014.91
2022-12-31T15:03:46.243Z,100033.34
2022-12-31T15:06:31.485Z,100050.13
2022-12-31T15:09:12.909Z,100045.75
2022-12-31T15:11:46.135Z,100048.28
2022-12-31T15:14:24.650Z,100055.34
2022-12-31T15:16:54.140Z,100055.25
2022-12-31T15:19:43.290Z,100056.19
2022-12-31T15:22:18.519Z,100061.44
2022-12-31T15:24:46.610Z,100057.03
2022-12-31T15:27:31.671Z,100056.91
2022-12-31T15:29:58.216Z,100053.31
2022-12-31T15:32:44.714Z,100063.06
2022-12-31T15:35:20.056Z,100060.47
2022-12-31T15:37:57.292Z,100058.78
2022-12-31T15:40:25.065Z,100069.31
2022-12-31T15:42:58.399Z,100078.06
2022-12-31T15:45:30.987Z,100079.78
2022-12-31T15:47:59.136Z,100087.75
2022-12-31T15:50:25.811Z,100092.09
2022-12-31T15:52:54.182Z,100097.47
2022-12-31T15:55:25.284Z,100086.06
2022-12-31T15:57:53.261Z,100086.16
2022-12-31T16:00:21.707Z,100088.84
2022-12-31T16:02:50.131Z,100097.66
2022-12-31T16:05:17.860Z,100105.59
2022-12-31T16:07:44.227Z,100101.19
2022-12-31T16:10:15.477Z,100113.50
2022-12-31T16:12:44.804Z,100116.16
2022-12-31T16:15:20.455Z,100112.66
2022-12-31T16:17:47.008Z,100108.34
2022-12-31T16:20:26.877Z,100110.19
2022-12-31T16:22:56.128Z,100126.09
2022-12-31T16:25:31.611Z,100133.19
2022-12-31T16:27:59.153Z,100127.97
2022-12-31T16:30:30.351Z,100135.06
2022-12-31T16:33:02.064Z,100130.72
2022-12-31T16:35:36.245Z,100129.03
2022-12-31T16:38:02.598Z,100141.44
2022-12-31T16:40:29.211Z,100144.13
2022-12-31T16:42:55.866Z,100139.75
2022-12-31T16:45:31.004Z,100152.97
2022-12-31T16:48:00.803Z,100158.31
2022-12-31T16:50:27.209Z,100147.84
2022-12-31T16:53:04.795Z,100140.81
2022-12-31T16:55:32.197Z,100149.69
2022-12-31T16:58:01.475Z,100145.31
2022-12-31T17:00:28.070Z,100142.66
2022-12-31T17:03:08.747Z,100144.41
2022-12-31T17:05:52.922Z,100130.31
2022-12-31T17:08:23.622Z,100135.63
2022-12-31T17:10:49.878Z,100147.13
2022-12-31T17:13:29.844Z,100141.88
2022-12-31T17:15:57.095Z,100133.09
2022-12-31T17:18:25.500Z,100140.13
2022-12-31T17:20:53.039Z,100150.78
2022-12-31T17:23:26.851Z,100156.97
2022-12-31T17:26:22.649Z,100161.41
2022-12-31T17:28:50.873Z,100164.94
2022-12-31T17:31:35.382Z,100186.09
2022-12-31T17:34:10.695Z,100183.38
2022-12-31T17:36:36.951Z,100177.25
2022-12-31T17:39:19.409Z,100184.28
2022-12-31T17:41:46.423Z,100188.75
2022-12-31T17:44:32.959Z,100185.19
2022-12-31T17:46:59.314Z,100164.03
2022-12-31T17:49:30.225Z,100169.31
2022-12-31T17:51:56.670Z,100173.81
2022-12-31T17:54:23.144Z,100167.63
2022-12-31T17:56:49.671Z,100165.91
2022-12-31T17:59:17.434Z,100157.97
2022-12-31T18:01:43.877Z,100155.44
2022-12-31T18:04:14.213Z,100176.59
2022-12-31T18:06:40.734Z,100174.00
2022-12-31T18:09:07.243Z,100187.22
2022-12-31T18:11:33.789Z,100174.94
2022-12-31T18:14:00.112Z,100163.44
2022-12-31T18:16:28.228Z,100163.50
2022-12-31T18:18:56.584Z,100168.72
2022-12-31T18:21:22.815Z,100165.22
2022-12-31T18:23:49.835Z,100159.03
2022-12-31T18:26:18.168Z,100159.03
2022-12-31T18:28:44.734Z,100146.66
2022-12-31T18:31:16.450Z,100149.38
2022-12-31T18:33:42.850Z,100156.41
2022-12-31T18:36:13.275Z,100163.50
2022-12-31T18:38:39.929Z,100155.56
2022-12-31T18:41:07.120Z,100167.91
2022-12-31T18:43:33.445Z,100164.38
2022-12-31T18:45:59.725Z,100186.41
2022-12-31T18:48:26.041Z,100184.66
2022-12-31T18:50:52.308Z,100182.88
2022-12-31T18:53:22.694Z,100200.53
2022-12-31T18:55:55.952Z,100196.16
2022-12-31T18:58:22.969Z,100199.66
2022-12-31T19:00:50.576Z,100202.28
2022-12-31T19:03:18.136Z,100199.66
2022-12-31T19:05:46.959Z,100198.81
2022-12-31T19:08:13.203Z,100199.72
2022-12-31T19:10:39.555Z,100199.72
2022-12-31T19:13:05.839Z,100190.03
2022-12-31T19:15:42.683Z,100184.78
2022-12-31T19:18:09.568Z,100173.34
2022-12-31T19:20:35.819Z,100181.25
2022-12-31T19:23:02.085Z,100175.97
2022-12-31T19:25:33.574Z,100186.53
2022-12-31T19:28:04.067Z,100174.22
2022-12-31T19:30:31.492Z,100173.34
2022-12-31T19:32:57.738Z,100173.34
2022-12-31T19:35:24.282Z,100171.59
2022-12-31T19:37:51.751Z,100180.38
2022-12-31T19:40:19.267Z,100186.56
2022-12-31T19:42:46.098Z,100191.84
2022-12-31T19:45:16.523Z,100196.22
2022-12-31T19:47:43.943Z,100205.94
2022-12-31T19:50:28.330Z,100191.84
2022-12-31T19:52:56.640Z,100181.25
2022-12-31T19:55:26.105Z,100184.78
2022-12-31T19:57:52.665Z,100164.53
2022-12-31T20:00:19.170Z,100168.03
2022-12-31T20:02:47.231Z,100170.66
2022-12-31T20:05:14.975Z,100167.13
2022-12-31T20:07:41.490Z,100167.13
2022-12-31T20:10:08.373Z,100149.50
2022-12-31T20:12:40.557Z,100149.50
2022-12-31T20:15:10.544Z,100164.44
2022-12-31T20:17:37.087Z,100159.16
2022-12-31T20:20:03.796Z,100163.50
2022-12-31T20:22:30.059Z,100157.34
2022-12-31T20:24:56.358Z,100167.91
2022-12-31T20:27:22.606Z,100158.25
2022-12-31T20:29:48.915Z,100162.63
2022-12-31T20:32:15.192Z,100167.91
2022-12-31T20:34:41.492Z,100164.44
2022-12-31T20:37:07.741Z,100161.81
2022-12-31T20:39:34.041Z,100160.91
2022-12-31T20:42:00.401Z,100167.94
2022-12-31T20:44:26.670Z,100168.81
2022-12-31T20:46:52.953Z,100160.91
2022-12-31T20:49:37.075Z,100151.22
2022-12-31T20:52:06.019Z,100159.09
2022-12-31T20:54:32.471Z,100152.03
2022-12-31T20:57:00.058Z,100149.28
2022-12-31T20:59:26.963Z,100154.50
2022-12-31T21:02:20.469Z,100143.81
2022-12-31T21:04:39.688Z,100136.69
2022-12-31T21:07:06.020Z,100139.28
2022-12-31T21:09:32.310Z,100140.09
2022-12-31T21:12:17.142Z,100134.75
2022-12-31T21:14:44.967Z,100129.34
2022-12-31T21:17:11.363Z,100123.06
2022-12-31T21:19:37.637Z,100129.97
2022-12-31T21:22:03.917Z,100138.75
2022-12-31T21:24:30.170Z,100139.56
2022-12-31T21:26:56.676Z,100143.09
2022-12-31T21:29:22.993Z,100139.50
2022-12-31T21:31:49.684Z,100135.94
2022-12-31T21:34:15.943Z,100137.72
2022-12-31T21:36:42.239Z,100125.38
2022-12-31T21:39:08.503Z,100133.28
2022-12-31T21:41:52.879Z,100130.63
2022-12-31T21:44:20.819Z,100128.91
2022-12-31T21:47:33.241Z,100122.72
2022-12-31T21:49:40.299Z,100126.31
2022-12-31T21:52:35.968Z,100131.59
2022-12-31T21:55:21.682Z,100131.63
2022-12-31T21:58:24.069Z,100263.94
2022-12-31T22:00:53.960Z,100266.63
2022-12-31T22:03:27.579Z,100270.19
2022-12-31T22:05:59.789Z,100269.34
2022-12-31T22:08:26.827Z,100279.94
2022-12-31T22:10:53.637Z,100281.72
2022-12-31T22:13:20.091Z,100289.66
2022-12-31T22:15:47.417Z,100302.88
2022-12-31T22:18:14.932Z,100266.78
2022-12-31T22:20:41.467Z,100230.69
2022-12-31T22:23:08.058Z,100222.72
2022-12-31T22:25:35.241Z,100208.66
2022-12-31T22:28:36.842Z,100195.47
2022-12-31T22:30:48.657Z,100192.84
2022-12-31T22:33:14.923Z,100190.22
2022-12-31T22:35:41.177Z,100186.72
2022-12-31T22:38:11.877Z,100177.91
2022-12-31T22:40:38.737Z,100151.63
2022-12-31T22:43:05.029Z,100170.06
2022-12-31T22:45:31.318Z,100177.09
2022-12-31T22:47:57.561Z,100178.00
2022-12-31T22:50:24.247Z,100169.22
2022-12-31T22:52:50.581Z,100184.16
2022-12-31T22:55:16.883Z,100180.66
2022-12-31T22:57:43.328Z,100189.44
2022-12-31T23:00:12.212Z,100199.16
2022-12-31T23:02:41.769Z,100208.81
2022-12-31T23:05:16.163Z,100202.69
2022-12-31T23:07:42.900Z,100203.53
2022-12-31T23:10:28.036Z,100201.75
2022-12-31T23:12:54.306Z,100195.63
2022-12-31T23:15:38.950Z,100207.03
2022-12-31T23:18:23.977Z,100200.84
2022-12-31T23:21:08.782Z,100221.09
2022-12-31T23:23:35.063Z,100220.19
2022-12-31T23:26:02.028Z,100236.88
2022-12-31T23:28:28.319Z,100239.53
2022-12-31T23:30:54.596Z,100225.53
2022-12-31T23:33:22.417Z,100251.84
2022-12-31T23:35:48.836Z,100226.38
2022-12-31T23:38:16.749Z,100259.75
2022-12-31T23:40:43.193Z,100242.28
2022-12-31T23:43:10.073Z,100224.72
2022-12-31T23:45:36.516Z,100258.03
2022-12-31T23:48:03.499Z,100273.88
2022-12-31T23:50:29.781Z,100251.03
2022-12-31T23:52:56.082Z,100278.28
2022-12-31T23:55:22.381Z,100264.25
2022-12-31T23:57:48.664Z,100298.53
